Time;durP1;ratioP1;P1;durP2;ratioP2;P2;SDS_P1;SDS_P2;PMS_P1;PMS_P2;Temp;Humidity;BMP_temperature;BMP_pressure;BME280_temperature;BME280_humidity;BME280_pressure;Samples;Min_cycle;Max_cycle;Signal;HPM_P1;HPM_P2
2022/09/07 00:00:57;;;;;;;1.40;0.93;;;;;;;;;;7395319;19;20006;-77
2022/09/07 00:03:22;;;;;;;8.38;1.20;;;;;;;;;;7397293;19;20308;-77
2022/09/07 00:05:49;;;;;;;2.25;0.73;;;;;;;;;;7394491;19;20623;-76
2022/09/07 00:08:17;;;;;;;4.65;1.30;;;;;;;;;;7394769;19;20360;-78
2022/09/07 00:10:56;;;;;;;1.90;1.02;;;;;;;;;;7395728;19;20010;-78
2022/09/07 00:13:23;;;;;;;1.30;1.17;;;;;;;;;;7394935;19;20031;-77
2022/09/07 00:15:48;;;;;;;5.55;1.40;;;;;;;;;;7394319;19;21739;-77
2022/09/07 00:18:14;;;;;;;3.40;1.00;;;;;;;;;;7394722;19;20021;-77
2022/09/07 00:20:39;;;;;;;2.58;0.82;;;;;;;;;;7393180;19;20006;-78
2022/09/07 00:23:04;;;;;;;3.67;1.05;;;;;;;;;;7391089;19;20009;-78
2022/09/07 00:25:30;;;;;;;1.80;1.20;;;;;;;;;;7395067;19;20027;-77
2022/09/07 00:27:55;;;;;;;2.17;1.33;;;;;;;;;;7393586;19;20777;-76
2022/09/07 00:30:21;;;;;;;1.17;1.08;;;;;;;;;;7395949;19;20014;-77
2022/09/07 00:32:46;;;;;;;1.52;0.85;;;;;;;;;;7393035;19;20002;-77
2022/09/07 00:35:11;;;;;;;1.60;1.00;;;;;;;;;;7394060;19;20014;-77
2022/09/07 00:37:37;;;;;;;2.42;1.38;;;;;;;;;;7394226;19;20409;-77
2022/09/07 00:40:03;;;;;;;0.88;0.88;;;;;;;;;;7392726;19;20010;-78
2022/09/07 00:42:28;;;;;;;3.78;1.40;;;;;;;;;;7393884;19;20074;-78
2022/09/07 00:45:08;;;;;;;2.10;1.17;;;;;;;;;;7394660;19;20681;-78
2022/09/07 00:47:36;;;;;;;3.38;1.33;;;;;;;;;;7394425;19;20010;-78
2022/09/07 00:50:24;;;;;;;2.15;1.15;;;;;;;;;;7392341;19;20336;-77
2022/09/07 00:52:57;;;;;;;3.80;2.05;;;;;;;;;;7394964;19;19998;-77
2022/09/07 00:55:22;;;;;;;2.83;1.88;;;;;;;;;;7391450;19;20010;-78
2022/09/07 00:57:51;;;;;;;3.38;1.70;;;;;;;;;;7393737;19;20039;-77
2022/09/07 01:00:17;;;;;;;7.22;2.17;;;;;;;;;;7392907;19;20011;-77
2022/09/07 01:02:45;;;;;;;2.55;1.40;;;;;;;;;;7394196;19;20373;-77
2022/09/07 01:05:22;;;;;;;10.45;1.80;;;;;;;;;;7392707;19;20501;-77
2022/09/07 01:07:47;;;;;;;9.45;1.83;;;;;;;;;;7395010;19;20066;-77
2022/09/07 01:10:13;;;;;;;6.47;1.98;;;;;;;;;;7391860;19;20006;-77
2022/09/07 01:12:38;;;;;;;9.52;2.25;;;;;;;;;;7393077;19;20014;-79
2022/09/07 01:15:05;;;;;;;2.58;1.75;;;;;;;;;;7393915;19;20527;-76
2022/09/07 01:17:52;;;;;;;5.28;1.40;;;;;;;;;;7393196;19;20073;-77
2022/09/07 01:20:32;;;;;;;4.18;2.22;;;;;;;;;;7394596;19;20006;-77
2022/09/07 01:23:24;;;;;;;3.00;1.65;;;;;;;;;;7390906;19;20010;-78
2022/09/07 01:26:23;;;;;;;1.70;1.08;;;;;;;;;;7393661;19;20014;-77
2022/09/07 01:28:58;;;;;;;1.92;1.27;;;;;;;;;;7393618;19;20007;-77
2022/09/07 01:31:42;;;;;;;3.70;1.63;;;;;;;;;;7393903;19;20027;-77
2022/09/07 01:34:20;;;;;;;2.35;1.00;;;;;;;;;;7393527;19;20009;-77
2022/09/07 01:37:19;;;;;;;3.15;1.15;;;;;;;;;;7393639;19;20014;-77
2022/09/07 01:40:01;;;;;;;2.53;1.70;;;;;;;;;;7392207;19;20078;-77
2022/09/07 01:42:31;;;;;;;3.33;1.50;;;;;;;;;;7394037;19;20013;-77
2022/09/07 01:45:00;;;;;;;4.75;1.70;;;;;;;;;;7393131;19;20434;-76
2022/09/07 01:47:48;;;;;;;5.78;1.67;;;;;;;;;;7393711;19;20015;-77
2022/09/07 01:50:22;;;;;;;3.17;1.33;;;;;;;;;;7392191;19;20096;-77
2022/09/07 01:53:03;;;;;;;3.60;1.45;;;;;;;;;;7394520;19;20107;-77
2022/09/07 01:55:37;;;;;;;5.63;1.60;;;;;;;;;;7392507;19;20031;-77
2022/09/07 01:58:27;;;;;;;5.10;1.73;;;;;;;;;;7390197;19;20014;-77
2022/09/07 02:01:02;;;;;;;3.05;1.77;;;;;;;;;;7394060;19;20006;-78
2022/09/07 02:03:33;;;;;;;;;;;;;;;;;;7392741;19;20010;-77
2022/09/07 02:06:10;;;;;;;2.17;1.15;;;;;;;;;;7393380;19;20335;-77
2022/09/07 02:08:56;;;;;;;3.05;1.75;;;;;;;;;;7388015;19;20046;-77
2022/09/07 02:11:28;;;;;;;7.18;1.52;;;;;;;;;;7389775;19;20394;-77
2022/09/07 02:14:00;;;;;;;6.00;1.85;;;;;;;;;;7390618;19;20002;-77
2022/09/07 02:16:30;;;;;;;4.03;1.20;;;;;;;;;;7390221;19;20439;-77
2022/09/07 02:19:02;;;;;;;2.47;1.30;;;;;;;;;;7391292;19;20464;-76
2022/09/07 02:21:37;;;;;;;6.03;1.60;;;;;;;;;;7390530;19;20007;-78
2022/09/07 02:24:07;;;;;;;1.67;1.45;;;;;;;;;;7391069;19;20460;-77
2022/09/07 02:26:35;;;;;;;3.28;1.55;;;;;;;;;;7389498;19;20374;-77
2022/09/07 02:29:01;;;;;;;2.03;1.25;;;;;;;;;;7388444;19;20014;-77
2022/09/07 02:31:27;;;;;;;2.25;1.50;;;;;;;;;;7390678;19;20010;-77
2022/09/07 02:33:52;;;;;;;1.17;1.00;;;;;;;;;;7392054;19;20006;-77
2022/09/07 02:36:23;;;;;;;2.38;1.00;;;;;;;;;;7386320;19;20010;-77
2022/09/07 02:38:49;;;;;;;2.42;1.63;;;;;;;;;;7386594;19;20479;-77
2022/09/07 02:41:35;;;;;;;4.30;1.10;;;;;;;;;;7391410;19;20011;-77
2022/09/07 02:44:05;;;;;;;2.08;1.27;;;;;;;;;;7389632;19;20074;-77
2022/09/07 02:46:55;;;;;;;1.90;1.38;;;;;;;;;;7391503;19;20070;-77
2022/09/07 02:49:32;;;;;;;2.55;1.35;;;;;;;;;;7389849;19;20559;-76
2022/09/07 02:52:45;;;;;;;2.67;1.10;;;;;;;;;;7389007;19;20082;-76
2022/09/07 02:55:42;;;;;;;1.05;0.93;;;;;;;;;;7388155;19;20530;-78
2022/09/07 02:58:30;;;;;;;1.17;0.93;;;;;;;;;;7388636;19;20003;-77
2022/09/07 03:01:16;;;;;;;2.30;1.67;;;;;;;;;;7389523;19;20007;-77
2022/09/07 03:04:11;;;;;;;4.30;1.70;;;;;;;;;;7388012;19;20005;-77
2022/09/07 03:07:18;;;;;;;2.03;1.33;;;;;;;;;;7389843;19;20518;-77
2022/09/07 03:09:48;;;;;;;5.60;1.75;;;;;;;;;;7384982;19;20438;-78
2022/09/07 03:12:14;;;;;;;5.97;1.85;;;;;;;;;;7388155;19;20018;-77
2022/09/07 03:14:41;;;;;;;4.22;2.10;;;;;;;;;;7391669;19;20006;-76
2022/09/07 03:17:07;;;;;;;11.20;2.20;;;;;;;;;;7398568;19;20020;-77
2022/09/07 03:19:32;;;;;;;3.00;1.83;;;;;;;;;;7397319;19;20014;-77
2022/09/07 03:21:58;;;;;;;5.50;2.50;;;;;;;;;;7397738;19;19999;-78
2022/09/07 03:24:23;;;;;;;9.52;2.53;;;;;;;;;;7394375;19;20131;-77
2022/09/07 03:26:50;;;;;;;8.68;2.75;;;;;;;;;;7398368;19;20022;-77
2022/09/07 03:29:16;;;;;;;4.82;2.47;;;;;;;;;;7392716;19;20393;-78
2022/09/07 03:31:41;;;;;;;5.97;1.95;;;;;;;;;;7396196;19;20572;-76
2022/09/07 03:34:07;;;;;;;6.30;1.70;;;;;;;;;;7396736;19;20017;-77
2022/09/07 03:36:33;;;;;;;4.30;1.50;;;;;;;;;;7396732;19;20118;-77
2022/09/07 03:38:58;;;;;;;6.40;1.52;;;;;;;;;;7392810;19;20015;-77
2022/09/07 03:41:25;;;;;;;2.60;1.67;;;;;;;;;;7397602;19;20034;-77
2022/09/07 03:43:51;;;;;;;6.10;1.92;;;;;;;;;;7395850;19;20292;-77
2022/09/07 03:46:19;;;;;;;5.60;2.13;;;;;;;;;;7397830;19;20109;-77
2022/09/07 03:48:46;;;;;;;4.70;2.05;;;;;;;;;;7395315;19;20531;-77
2022/09/07 03:51:13;;;;;;;5.30;1.55;;;;;;;;;;7395896;19;20035;-76
2022/09/07 03:53:43;;;;;;;4.10;2.30;;;;;;;;;;7394171;19;20023;-78
2022/09/07 03:56:15;;;;;;;5.63;1.80;;;;;;;;;;7398350;19;20312;-77
2022/09/07 03:58:41;;;;;;;10.70;1.85;;;;;;;;;;7395085;19;20019;-76
2022/09/07 04:01:10;;;;;;;2.97;1.60;;;;;;;;;;7396066;19;20005;-77
2022/09/07 04:03:36;;;;;;;5.72;2.38;;;;;;;;;;7396441;19;20016;-76
2022/09/07 04:06:01;;;;;;;4.97;2.20;;;;;;;;;;7394849;19;20014;-77
2022/09/07 04:08:29;;;;;;;3.22;1.75;;;;;;;;;;7394176;19;20074;-77
2022/09/07 04:10:56;;;;;;;3.00;1.30;;;;;;;;;;7394604;19;20014;-76
2022/09/07 04:13:22;;;;;;;4.28;1.77;;;;;;;;;;7395488;19;20014;-76
2022/09/07 04:15:47;;;;;;;5.32;1.60;;;;;;;;;;7397374;19;20003;-76
2022/09/07 04:18:13;;;;;;;8.30;2.17;;;;;;;;;;7390387;19;20378;-78
2022/09/07 04:20:38;;;;;;;5.00;2.25;;;;;;;;;;7390498;19;20138;-76
2022/09/07 04:23:04;;;;;;;6.57;2.25;;;;;;;;;;7389160;19;20031;-78
2022/09/07 04:25:29;;;;;;;6.45;1.73;;;;;;;;;;7394846;19;20011;-78
2022/09/07 04:27:55;;;;;;;6.15;2.10;;;;;;;;;;7391152;19;20002;-76
2022/09/07 04:30:20;;;;;;;2.22;1.33;;;;;;;;;;7394646;19;20006;-77
2022/09/07 04:32:46;;;;;;;5.38;1.92;;;;;;;;;;7392668;19;20383;-77
2022/09/07 04:35:12;;;;;;;6.50;1.70;;;;;;;;;;7385707;19;20078;-78
2022/09/07 04:37:38;;;;;;;6.63;1.60;;;;;;;;;;7392837;19;20014;-77
2022/09/07 04:40:04;;;;;;;4.60;1.63;;;;;;;;;;7390143;19;20018;-78
2022/09/07 04:42:29;;;;;;;2.38;1.33;;;;;;;;;;7395627;19;20086;-77
2022/09/07 04:44:55;;;;;;;3.88;1.98;;;;;;;;;;7393411;19;20031;-76
2022/09/07 04:47:21;;;;;;;5.82;2.15;;;;;;;;;;7389848;19;20074;-76
2022/09/07 04:49:50;;;;;;;6.57;2.28;;;;;;;;;;7387838;19;20026;-78
2022/09/07 04:52:18;;;;;;;5.10;1.60;;;;;;;;;;7387519;19;20032;-77
2022/09/07 04:54:48;;;;;;;4.82;1.80;;;;;;;;;;7396378;19;20010;-76
2022/09/07 04:57:13;;;;;;;4.70;1.55;;;;;;;;;;7365139;19;20003;-76
2022/09/07 04:59:39;;;;;;;6.88;1.80;;;;;;;;;;7391193;19;20031;-77
2022/09/07 05:02:04;;;;;;;2.65;1.58;;;;;;;;;;7392538;19;20058;-77
2022/09/07 05:04:29;;;;;;;4.05;1.63;;;;;;;;;;7390788;19;20130;-77
2022/09/07 05:06:55;;;;;;;3.20;1.73;;;;;;;;;;7389846;19;22691;-76
2022/09/07 05:09:20;;;;;;;1.60;1.23;;;;;;;;;;7392458;19;20014;-77
2022/09/07 05:11:45;;;;;;;5.60;2.10;;;;;;;;;;7388612;19;20010;-77
2022/09/07 05:14:11;;;;;;;4.07;1.73;;;;;;;;;;7392390;19;20459;-77
2022/09/07 05:16:36;;;;;;;4.05;1.17;;;;;;;;;;7386756;19;20007;-77
2022/09/07 05:19:04;;;;;;;3.58;1.90;;;;;;;;;;7387840;19;20737;-78
2022/09/07 05:21:33;;;;;;;6.72;2.17;;;;;;;;;;7388207;19;20021;-77
2022/09/07 05:23:59;;;;;;;2.85;1.35;;;;;;;;;;7393049;19;20025;-77
2022/09/07 05:26:28;;;;;;;5.55;1.63;;;;;;;;;;7387473;19;20014;-76
2022/09/07 05:28:54;;;;;;;2.83;1.45;;;;;;;;;;7388344;19;20368;-77
2022/09/07 05:31:21;;;;;;;6.82;2.10;;;;;;;;;;7390940;19;20006;-75
2022/09/07 05:33:51;;;;;;;1.90;1.02;;;;;;;;;;7390768;19;20468;-77
2022/09/07 05:36:16;;;;;;;3.80;1.20;;;;;;;;;;7388916;19;20010;-77
2022/09/07 05:38:42;;;;;;;1.92;1.20;;;;;;;;;;7390321;19;20007;-77
2022/09/07 05:41:16;;;;;;;6.93;1.50;;;;;;;;;;7388271;19;20177;-76
2022/09/07 05:43:42;;;;;;;4.18;1.55;;;;;;;;;;7390878;19;20010;-77
2022/09/07 05:46:09;;;;;;;1.38;1.05;;;;;;;;;;7391172;19;20027;-76
2022/09/07 05:48:34;;;;;;;6.38;1.30;;;;;;;;;;7391021;19;20010;-75
2022/09/07 05:51:00;;;;;;;4.85;1.48;;;;;;;;;;7391250;19;20425;-75
2022/09/07 05:53:25;;;;;;;7.25;1.35;;;;;;;;;;7390584;19;20106;-76
2022/09/07 05:55:50;;;;;;;2.47;1.33;;;;;;;;;;7392033;19;20006;-75
2022/09/07 05:58:17;;;;;;;4.28;1.10;;;;;;;;;;7389705;19;20032;-77
2022/09/07 06:00:43;;;;;;;3.30;1.35;;;;;;;;;;7388945;19;20018;-75
2022/09/07 06:03:09;;;;;;;2.40;0.93;;;;;;;;;;7388336;19;20323;-76
2022/09/07 06:05:34;;;;;;;5.43;1.08;;;;;;;;;;7390778;19;20011;-75
2022/09/07 06:07:59;;;;;;;2.85;1.10;;;;;;;;;;7390414;19;20122;-76
2022/09/07 06:10:25;;;;;;;2.75;1.02;;;;;;;;;;7393540;19;20651;-75
2022/09/07 06:12:52;;;;;;;3.72;1.50;;;;;;;;;;7390310;19;20118;-76
2022/09/07 06:15:17;;;;;;;2.25;1.00;;;;;;;;;;7387732;19;19999;-75
2022/09/07 06:17:43;;;;;;;4.32;1.33;;;;;;;;;;7385434;19;20039;-76
2022/09/07 06:20:09;;;;;;;3.92;0.90;;;;;;;;;;7391024;19;20321;-76
2022/09/07 06:22:35;;;;;;;2.95;1.38;;;;;;;;;;7389894;19;19999;-77
2022/09/07 06:25:01;;;;;;;1.55;0.80;;;;;;;;;;7386006;19;20064;-77
2022/09/07 06:27:27;;;;;;;2.05;0.93;;;;;;;;;;7384623;19;20010;-76
2022/09/07 06:29:53;;;;;;;4.68;1.00;;;;;;;;;;7387809;19;20014;-76
2022/09/07 06:32:18;;;;;;;3.47;1.20;;;;;;;;;;7383024;19;20119;-77
2022/09/07 06:34:44;;;;;;;2.60;0.90;;;;;;;;;;7389516;19;20006;-75
2022/09/07 06:37:09;;;;;;;2.45;1.20;;;;;;;;;;7388315;19;20028;-75
2022/09/07 06:39:35;;;;;;;2.78;1.10;;;;;;;;;;7386853;19;20126;-78
2022/09/07 06:42:02;;;;;;;1.85;1.20;;;;;;;;;;7384217;19;20488;-76
2022/09/07 06:44:28;;;;;;;3.13;1.40;;;;;;;;;;7389147;19;20035;-77
2022/09/07 06:46:53;;;;;;;8.15;1.70;;;;;;;;;;7386792;19;20003;-77
2022/09/07 06:49:18;;;;;;;2.40;1.20;;;;;;;;;;7388818;19;20015;-75
2022/09/07 06:51:44;;;;;;;3.95;1.77;;;;;;;;;;7394202;19;20070;-75
2022/09/07 06:54:09;;;;;;;2.25;1.30;;;;;;;;;;7390896;19;20015;-75
2022/09/07 06:56:35;;;;;;;3.10;1.45;;;;;;;;;;7397520;19;20038;-74
2022/09/07 06:59:00;;;;;;;5.38;1.08;;;;;;;;;;7389966;19;20014;-75
2022/09/07 07:01:27;;;;;;;5.65;1.50;;;;;;;;;;7398147;19;20006;-75
2022/09/07 07:03:53;;;;;;;3.38;1.27;;;;;;;;;;7397260;19;20032;-76
2022/09/07 07:06:19;;;;;;;3.58;1.30;;;;;;;;;;7395298;19;20007;-76
2022/09/07 07:08:45;;;;;;;4.00;1.48;;;;;;;;;;7394897;19;20010;-77
2022/09/07 07:11:13;;;;;;;3.22;1.30;;;;;;;;;;7398235;19;20475;-75
2022/09/07 07:13:40;;;;;;;6.00;2.05;;;;;;;;;;7391271;19;20011;-76
2022/09/07 07:16:14;;;;;;;4.93;2.00;;;;;;;;;;7398444;19;20025;-76
2022/09/07 07:18:41;;;;;;;2.85;1.50;;;;;;;;;;7395544;19;20009;-75
2022/09/07 07:21:09;;;;;;;2.60;1.10;;;;;;;;;;7393993;19;20006;-76
2022/09/07 07:23:35;;;;;;;3.95;1.30;;;;;;;;;;7396791;19;20015;-76
2022/09/07 07:26:05;;;;;;;3.65;1.25;;;;;;;;;;7394859;19;20013;-76
2022/09/07 07:28:31;;;;;;;2.40;1.17;;;;;;;;;;7394589;19;20034;-77
2022/09/07 07:30:58;;;;;;;3.45;1.02;;;;;;;;;;7386615;19;20041;-76
2022/09/07 07:33:27;;;;;;;5.55;1.10;;;;;;;;;;7396000;19;20030;-77
2022/09/07 07:35:53;;;;;;;5.03;1.17;;;;;;;;;;7399095;19;20001;-77
2022/09/07 07:38:18;;;;;;;2.47;1.23;;;;;;;;;;7393307;19;20006;-77
2022/09/07 07:40:44;;;;;;;4.40;1.23;;;;;;;;;;7394790;19;20014;-77
2022/09/07 07:43:10;;;;;;;4.28;1.40;;;;;;;;;;7397345;19;20006;-78
2022/09/07 07:45:35;;;;;;;1.23;0.95;;;;;;;;;;7397692;19;20006;-77
2022/09/07 07:48:01;;;;;;;4.85;1.10;;;;;;;;;;7395043;19;20045;-77
2022/09/07 07:50:26;;;;;;;2.35;0.95;;;;;;;;;;7397537;19;20417;-77
2022/09/07 07:52:51;;;;;;;3.95;1.65;;;;;;;;;;7395547;19;20347;-77
2022/09/07 07:55:17;;;;;;;4.32;1.25;;;;;;;;;;7391873;19;20039;-77
2022/09/07 07:57:42;;;;;;;5.45;1.20;;;;;;;;;;7384653;19;20027;-76
2022/09/07 08:00:08;;;;;;;4.90;1.20;;;;;;;;;;7390307;19;20018;-75
2022/09/07 08:02:34;;;;;;;1.55;1.02;;;;;;;;;;7385062;19;20017;-75
2022/09/07 08:05:00;;;;;;;3.85;1.42;;;;;;;;;;7393004;19;20512;-75
2022/09/07 08:07:25;;;;;;;2.25;1.27;;;;;;;;;;7393580;19;20078;-76
2022/09/07 08:09:51;;;;;;;3.25;1.40;;;;;;;;;;7394474;19;20275;-76
2022/09/07 08:12:18;;;;;;;4.45;1.08;;;;;;;;;;7395193;19;20006;-76
2022/09/07 08:14:46;;;;;;;5.97;1.33;;;;;;;;;;7393741;19;20002;-75
2022/09/07 08:17:14;;;;;;;3.80;1.17;;;;;;;;;;7386927;19;20013;-76
2022/09/07 08:19:40;;;;;;;2.05;0.90;;;;;;;;;;7391329;19;20082;-76
2022/09/07 08:22:06;;;;;;;3.20;1.30;;;;;;;;;;7388410;19;20110;-76
2022/09/07 08:24:32;;;;;;;3.95;1.00;;;;;;;;;;7395828;19;20325;-76
2022/09/07 08:26:57;;;;;;;3.00;1.15;;;;;;;;;;7392104;19;20006;-77
2022/09/07 08:29:23;;;;;;;5.80;1.70;;;;;;;;;;7394461;19;20010;-76
2022/09/07 08:31:49;;;;;;;2.13;1.10;;;;;;;;;;7387685;19;20010;-75
2022/09/07 08:34:15;;;;;;;2.30;1.10;;;;;;;;;;7396444;19;20134;-77
2022/09/07 08:36:40;;;;;;;3.03;1.00;;;;;;;;;;7393458;19;20066;-77
2022/09/07 08:39:06;;;;;;;1.30;0.88;;;;;;;;;;7388633;19;20013;-77
2022/09/07 08:41:51;;;;;;;3.58;1.25;;;;;;;;;;7391925;19;20333;-78
2022/09/07 08:44:52;;;;;;;1.45;0.90;;;;;;;;;;7396154;19;20033;-76
2022/09/07 08:47:47;;;;;;;1.65;1.10;;;;;;;;;;7390646;19;20014;-76
2022/09/07 08:50:24;;;;;;;2.20;1.10;;;;;;;;;;7392242;19;20340;-76
2022/09/07 08:52:53;;;;;;;2.88;1.33;;;;;;;;;;7395476;19;20211;-76
2022/09/07 08:55:39;;;;;;;5.45;1.23;;;;;;;;;;7393232;19;20011;-77
2022/09/07 08:58:25;;;;;;;5.78;1.15;;;;;;;;;;7394229;19;20006;-77
2022/09/07 09:00:50;;;;;;;2.25;0.90;;;;;;;;;;7394504;19;20006;-77
2022/09/07 09:03:27;;;;;;;4.28;0.90;;;;;;;;;;7393719;19;20006;-77
2022/09/07 09:06:03;;;;;;;5.55;1.10;;;;;;;;;;7394576;19;20019;-77
2022/09/07 09:08:46;;;;;;;3.05;1.15;;;;;;;;;;7391496;19;20018;-75
2022/09/07 09:11:26;;;;;;;3.22;1.23;;;;;;;;;;7394932;19;19998;-76
2022/09/07 09:14:09;;;;;;;9.48;1.40;;;;;;;;;;7391412;19;20014;-76
2022/09/07 09:16:43;;;;;;;1.73;0.95;;;;;;;;;;7391803;19;20011;-76
2022/09/07 09:19:46;;;;;;;2.35;0.93;;;;;;;;;;7390684;19;20010;-76
2022/09/07 09:22:16;;;;;;;1.63;0.77;;;;;;;;;;7390665;19;20010;-76
2022/09/07 09:25:22;;;;;;;4.80;1.15;;;;;;;;;;7391062;19;20010;-76
2022/09/07 09:27:48;;;;;;;3.65;1.20;;;;;;;;;;7387631;19;20054;-76
2022/09/07 09:30:21;;;;;;;2.85;1.05;;;;;;;;;;7394209;19;20076;-77
2022/09/07 09:32:51;;;;;;;3.58;1.10;;;;;;;;;;7391588;19;20102;-76
2022/09/07 09:35:44;;;;;;;4.97;1.10;;;;;;;;;;7392641;19;20006;-76
2022/09/07 09:38:28;;;;;;;3.75;1.02;;;;;;;;;;7391629;19;20069;-76
2022/09/07 09:40:55;;;;;;;2.80;0.98;;;;;;;;;;7389064;19;20035;-76
2022/09/07 09:43:24;;;;;;;2.45;1.13;;;;;;;;;;7395155;19;20106;-76
2022/09/07 09:45:55;;;;;;;2.22;1.02;;;;;;;;;;7396110;19;20013;-76
2022/09/07 09:48:38;;;;;;;1.88;1.10;;;;;;;;;;7392320;19;20019;-76
2022/09/07 09:51:06;;;;;;;4.45;1.13;;;;;;;;;;7395145;19;20006;-77
2022/09/07 09:53:36;;;;;;;1.25;1.00;;;;;;;;;;7392855;19;20010;-76
2022/09/07 09:56:06;;;;;;;5.65;0.90;;;;;;;;;;7392903;19;20006;-76
2022/09/07 09:58:36;;;;;;;7.07;1.30;;;;;;;;;;7392204;19;20022;-76
2022/09/07 10:01:05;;;;;;;3.13;0.85;;;;;;;;;;7388619;19;20342;-76
2022/09/07 10:03:33;;;;;;;2.65;0.90;;;;;;;;;;7392269;19;20080;-77
2022/09/07 10:06:06;;;;;;;6.35;1.17;;;;;;;;;;7392310;19;20010;-76
2022/09/07 10:08:33;;;;;;;2.83;0.80;;;;;;;;;;7393456;19;20433;-77
2022/09/07 10:11:02;;;;;;;5.65;1.38;;;;;;;;;;7390819;19;20079;-76
2022/09/07 10:13:30;;;;;;;3.60;1.10;;;;;;;;;;7387330;19;20062;-76
2022/09/07 10:15:58;;;;;;;4.05;1.17;;;;;;;;;;7392178;19;20013;-76
2022/09/07 10:18:37;;;;;;;2.88;0.70;;;;;;;;;;7389930;19;20003;-76
2022/09/07 10:21:28;;;;;;;1.67;0.70;;;;;;;;;;7391190;19;20067;-77
2022/09/07 10:24:06;;;;;;;2.25;0.90;;;;;;;;;;7387920;19;20015;-76
2022/09/07 10:26:34;;;;;;;2.28;0.88;;;;;;;;;;7391265;19;20476;-77
2022/09/07 10:29:19;;;;;;;7.63;1.10;;;;;;;;;;7389972;19;20018;-76
2022/09/07 10:32:18;;;;;;;2.45;0.90;;;;;;;;;;7392589;19;20011;-76
2022/09/07 10:34:49;;;;;;;1.92;0.82;;;;;;;;;;7393662;19;20013;-76
2022/09/07 10:37:42;;;;;;;4.50;0.90;;;;;;;;;;7392194;19;20015;-76
2022/09/07 10:40:11;;;;;;;7.30;1.02;;;;;;;;;;7392944;19;20011;-76
2022/09/07 10:42:41;;;;;;;5.38;1.00;;;;;;;;;;7390929;19;20006;-77
2022/09/07 10:45:18;;;;;;;3.55;0.93;;;;;;;;;;7393924;19;20017;-76
2022/09/07 10:47:58;;;;;;;6.63;1.10;;;;;;;;;;7391204;19;20409;-77
2022/09/07 10:50:50;;;;;;;3.33;0.77;;;;;;;;;;7392232;19;20044;-76
2022/09/07 10:53:44;;;;;;;4.90;1.20;;;;;;;;;;7392214;19;20350;-77
2022/09/07 10:56:14;;;;;;;3.17;1.00;;;;;;;;;;7389618;19;20479;-76
2022/09/07 10:58:51;;;;;;;4.47;0.73;;;;;;;;;;7392302;19;19998;-77
2022/09/07 11:01:45;;;;;;;3.97;1.00;;;;;;;;;;7393393;19;20476;-76
2022/09/07 11:04:48;;;;;;;1.85;0.90;;;;;;;;;;7391878;19;20024;-77
2022/09/07 11:07:24;;;;;;;5.95;1.10;;;;;;;;;;7391934;19;20022;-76
2022/09/07 11:10:10;;;;;;;2.72;0.80;;;;;;;;;;7394339;19;20006;-77
2022/09/07 11:12:38;;;;;;;3.90;0.63;;;;;;;;;;7393255;19;20501;-77
2022/09/07 11:15:13;;;;;;;1.20;0.60;;;;;;;;;;7393945;19;20193;-77
2022/09/07 11:17:52;;;;;;;3.17;0.90;;;;;;;;;;7390456;19;20011;-76
2022/09/07 11:20:36;;;;;;;1.45;0.70;;;;;;;;;;7391970;19;20011;-77
2022/09/07 11:23:22;;;;;;;2.83;0.90;;;;;;;;;;7392418;19;20070;-75
2022/09/07 11:26:00;;;;;;;1.92;0.90;;;;;;;;;;7391885;19;20007;-77
2022/09/07 11:28:30;;;;;;;3.78;0.90;;;;;;;;;;7387756;19;20014;-77
2022/09/07 11:30:59;;;;;;;4.65;1.42;;;;;;;;;;7390592;19;20016;-76
2022/09/07 11:33:32;;;;;;;3.92;1.00;;;;;;;;;;7392958;19;20370;-77
2022/09/07 11:36:04;;;;;;;4.60;1.05;;;;;;;;;;7397508;19;20019;-76
2022/09/07 11:38:48;;;;;;;2.17;0.90;;;;;;;;;;7400769;19;19998;-76
2022/09/07 11:41:19;;;;;;;3.80;0.90;;;;;;;;;;7399764;19;20009;-76
2022/09/07 11:43:49;;;;;;;1.85;0.90;;;;;;;;;;7401105;19;20021;-78
2022/09/07 11:46:36;;;;;;;2.95;0.80;;;;;;;;;;7398888;19;20006;-76
2022/09/07 11:49:11;;;;;;;1.85;0.90;;;;;;;;;;7397628;19;20042;-76
2022/09/07 11:51:45;;;;;;;3.72;1.08;;;;;;;;;;7399964;19;20006;-76
2022/09/07 11:54:32;;;;;;;4.55;1.00;;;;;;;;;;7399576;19;20018;-77
2022/09/07 11:57:16;;;;;;;2.70;1.45;;;;;;;;;;7398206;19;20094;-76
2022/09/07 11:59:56;;;;;;;2.95;1.25;;;;;;;;;;7396565;19;20490;-76
2022/09/07 12:02:43;;;;;;;4.38;0.98;;;;;;;;;;7398380;19;20010;-76
2022/09/07 12:05:29;;;;;;;1.40;0.70;;;;;;;;;;7400098;19;20037;-77
2022/09/07 12:07:57;;;;;;;4.78;0.77;;;;;;;;;;7398726;19;20010;-77
2022/09/07 12:10:34;;;;;;;4.60;1.20;;;;;;;;;;7396536;19;20018;-76
2022/09/07 12:13:38;;;;;;;2.67;1.05;;;;;;;;;;7396950;19;20013;-76
2022/09/07 12:16:13;;;;;;;4.07;0.80;;;;;;;;;;7397786;19;20050;-77
2022/09/07 12:18:47;;;;;;;1.83;0.90;;;;;;;;;;7394134;19;20444;-77
2022/09/07 12:21:49;;;;;;;12.73;0.80;;;;;;;;;;7396995;19;20082;-77
2022/09/07 12:24:42;;;;;;;2.28;0.82;;;;;;;;;;7398309;19;20098;-77
2022/09/07 12:27:11;;;;;;;2.92;0.93;;;;;;;;;;7398131;19;20103;-77
2022/09/07 12:29:36;;;;;;;2.13;0.75;;;;;;;;;;7400934;19;20351;-77
2022/09/07 12:32:03;;;;;;;3.47;1.10;;;;;;;;;;7397571;19;20083;-77
2022/09/07 12:34:32;;;;;;;2.72;0.70;;;;;;;;;;7398835;19;20018;-78
2022/09/07 12:36:59;;;;;;;4.85;0.88;;;;;;;;;;7396071;19;20014;-77
2022/09/07 12:39:28;;;;;;;5.75;0.88;;;;;;;;;;7396420;19;19999;-77
2022/09/07 12:42:06;;;;;;;2.75;1.00;;;;;;;;;;7396799;19;20039;-77
2022/09/07 12:44:33;;;;;;;2.45;1.08;;;;;;;;;;7398266;19;20391;-77
2022/09/07 12:47:24;;;;;;;6.68;1.27;;;;;;;;;;7392919;19;19999;-78
2022/09/07 12:50:15;;;;;;;5.05;0.80;;;;;;;;;;7398960;19;20448;-77
2022/09/07 12:52:50;;;;;;;2.15;0.80;;;;;;;;;;7398463;19;20029;-77
2022/09/07 12:55:36;;;;;;;4.78;0.80;;;;;;;;;;7399148;19;20019;-77
2022/09/07 12:58:33;;;;;;;2.88;0.65;;;;;;;;;;7398421;19;20014;-76
2022/09/07 13:01:14;;;;;;;4.50;0.90;;;;;;;;;;7395546;19;20018;-77
2022/09/07 13:04:01;;;;;;;3.22;0.80;;;;;;;;;;7397183;19;20014;-77
2022/09/07 13:07:00;;;;;;;4.00;0.80;;;;;;;;;;7396777;19;20432;-77
2022/09/07 13:09:37;;;;;;;1.40;1.00;;;;;;;;;;7393668;19;20070;-76
2022/09/07 13:12:27;;;;;;;3.45;0.98;;;;;;;;;;7397505;19;20051;-77
2022/09/07 13:14:54;;;;;;;1.27;0.73;;;;;;;;;;7395322;19;20037;-77
2022/09/07 13:17:37;;;;;;;5.80;0.80;;;;;;;;;;7395853;19;20467;-76
2022/09/07 13:20:15;;;;;;;2.50;0.93;;;;;;;;;;7394819;19;20018;-77
2022/09/07 13:22:40;;;;;;;7.78;1.17;;;;;;;;;;7395629;19;19998;-77
2022/09/07 13:25:19;;;;;;;2.63;0.98;;;;;;;;;;7397734;19;20002;-77
2022/09/07 13:27:56;;;;;;;1.80;0.70;;;;;;;;;;7393920;19;20043;-77
2022/09/07 13:30:40;;;;;;;1.75;0.93;;;;;;;;;;7391578;19;20741;-77
2022/09/07 13:33:24;;;;;;;2.43;0.77;;;;;;;;;;7395854;19;20006;-77
2022/09/07 13:36:00;;;;;;;3.37;0.80;;;;;;;;;;7395817;19;20006;-77
2022/09/07 13:38:26;;;;;;;1.38;0.70;;;;;;;;;;7391967;19;20006;-78
2022/09/07 13:40:55;;;;;;;1.80;0.80;;;;;;;;;;7395529;19;20010;-77
2022/09/07 13:43:23;;;;;;;2.53;0.93;;;;;;;;;;7391872;19;20021;-77
2022/09/07 13:45:51;;;;;;;2.15;0.77;;;;;;;;;;7394945;19;20017;-76
2022/09/07 13:48:30;;;;;;;2.20;0.93;;;;;;;;;;7395978;19;20006;-76
2022/09/07 13:51:21;;;;;;;3.05;0.88;;;;;;;;;;7394330;19;20143;-76
2022/09/07 13:53:48;;;;;;;7.72;1.30;;;;;;;;;;7392383;19;20035;-77
2022/09/07 13:56:22;;;;;;;2.45;0.80;;;;;;;;;;7392437;19;20017;-76
2022/09/07 13:58:51;;;;;;;3.23;0.80;;;;;;;;;;7392175;19;20010;-78
2022/09/07 14:01:26;;;;;;;3.38;0.95;;;;;;;;;;7390028;19;19999;-78
2022/09/07 14:03:58;;;;;;;2.58;0.98;;;;;;;;;;7390542;19;20010;-77
2022/09/07 14:06:28;;;;;;;4.75;0.90;;;;;;;;;;7389335;19;20368;-78
2022/09/07 14:08:57;;;;;;;2.22;0.65;;;;;;;;;;7389967;19;19990;-77
2022/09/07 14:11:28;;;;;;;2.47;0.88;;;;;;;;;;7386722;19;20018;-77
2022/09/07 14:14:14;;;;;;;3.22;0.80;;;;;;;;;;7390217;19;20031;-77
2022/09/07 14:17:03;;;;;;;2.42;0.98;;;;;;;;;;7382432;19;20022;-76
2022/09/07 14:19:43;;;;;;;1.95;0.82;;;;;;;;;;7386481;19;20006;-79
2022/09/07 14:22:14;;;;;;;2.95;1.02;;;;;;;;;;7391996;19;20002;-78
2022/09/07 14:24:45;;;;;;;2.80;0.93;;;;;;;;;;7391061;19;20010;-77
2022/09/07 14:27:32;;;;;;;5.10;1.17;;;;;;;;;;7389686;19;20406;-81
2022/09/07 14:30:22;;;;;;;1.15;0.60;;;;;;;;;;7393363;19;20421;-79
2022/09/07 14:32:50;;;;;;;2.83;0.70;;;;;;;;;;7389824;19;20010;-79
2022/09/07 14:35:19;;;;;;;2.17;0.80;;;;;;;;;;7394053;19;20090;-79
2022/09/07 14:37:45;;;;;;;2.10;0.70;;;;;;;;;;7391622;19;19999;-77
2022/09/07 14:40:14;;;;;;;1.75;0.75;;;;;;;;;;7392749;19;20460;-78
2022/09/07 14:42:41;;;;;;;5.53;0.95;;;;;;;;;;7397312;19;20448;-77
2022/09/07 14:45:21;;;;;;;3.53;0.80;;;;;;;;;;7396094;19;20010;-78
2022/09/07 14:47:52;;;;;;;1.23;0.82;;;;;;;;;;7390644;19;20987;-77
2022/09/07 14:50:23;;;;;;;1.25;0.80;;;;;;;;;;7385521;19;20021;-77
2022/09/07 14:52:51;;;;;;;2.20;0.70;;;;;;;;;;7390816;19;20010;-77
2022/09/07 14:55:28;;;;;;;2.58;0.73;;;;;;;;;;7387679;19;20047;-76
2022/09/07 14:58:12;;;;;;;1.67;0.80;;;;;;;;;;7391034;19;20003;-77
2022/09/07 15:00:58;;;;;;;3.85;1.00;;;;;;;;;;7391294;19;20006;-77
2022/09/07 15:03:27;;;;;;;1.95;0.80;;;;;;;;;;7385629;19;19995;-77
2022/09/07 15:05:56;;;;;;;3.22;0.90;;;;;;;;;;7387873;19;20010;-77
2022/09/07 15:08:39;;;;;;;1.08;0.80;;;;;;;;;;7393225;19;20036;-77
2022/09/07 15:11:12;;;;;;;1.45;0.70;;;;;;;;;;7401662;19;19998;-78
2022/09/07 15:13:43;;;;;;;3.35;0.80;;;;;;;;;;7400870;19;20157;-79
2022/09/07 15:16:22;;;;;;;1.63;0.60;;;;;;;;;;7397934;19;20009;-76